sensor_id;sensor_type;location;lat;lon;timestamp;temperature;humidity
25346;DHT22;13300;51.032;3.710;2023-05-10T00:01:49;13.70;99.90
25346;DHT22;13300;51.032;3.710;2023-05-10T00:04:14;13.80;99.90
25346;DHT22;13300;51.032;3.710;2023-05-10T00:06:40;13.70;99.90
25346;DHT22;13300;51.032;3.710;2023-05-10T00:09:07;13.70;99.90
25346;DHT22;13300;51.032;3.710;2023-05-10T00:11:32;13.80;99.90
25346;DHT22;13300;51.032;3.710;2023-05-10T00:13:58;13.80;99.90
25346;DHT22;13300;51.032;3.710;2023-05-10T00:16:24;13.80;99.90
25346;DHT22;13300;51.032;3.710;2023-05-10T00:18:49;13.80;99.90
25346;DHT22;13300;51.032;3.710;2023-05-10T00:21:15;13.80;99.90
25346;DHT22;13300;51.032;3.710;2023-05-10T00:23:40;13.70;99.90
25346;DHT22;13300;51.032;3.710;2023-05-10T00:26:06;13.60;99.90
25346;DHT22;13300;51.032;3.710;2023-05-10T00:28:32;13.70;99.90
25346;DHT22;13300;51.032;3.710;2023-05-10T00:30:57;13.80;99.90
25346;DHT22;13300;51.032;3.710;2023-05-10T00:33:23;13.70;99.90
25346;DHT22;13300;51.032;3.710;2023-05-10T00:35:49;13.70;99.90
25346;DHT22;13300;51.032;3.710;2023-05-10T00:38:14;13.70;99.90
25346;DHT22;13300;51.032;3.710;2023-05-10T00:40:40;13.70;99.90
25346;DHT22;13300;51.032;3.710;2023-05-10T00:43:06;13.70;99.90
25346;DHT22;13300;51.032;3.710;2023-05-10T00:45:33;13.80;99.90
25346;DHT22;13300;51.032;3.710;2023-05-10T00:48:01;13.80;99.90
25346;DHT22;13300;51.032;3.710;2023-05-10T00:50:27;13.90;99.90
25346;DHT22;13300;51.032;3.710;2023-05-10T00:52:53;14.00;99.90
25346;DHT22;13300;51.032;3.710;2023-05-10T00:55:20;13.90;99.90
25346;DHT22;13300;51.032;3.710;2023-05-10T00:57:46;14.10;99.90
25346;DHT22;13300;51.032;3.710;2023-05-10T01:00:12;14.00;99.90
25346;DHT22;13300;51.032;3.710;2023-05-10T01:02:46;14.00;99.90
25346;DHT22;13300;51.032;3.710;2023-05-10T01:05:12;14.00;99.90
25346;DHT22;13300;51.032;3.710;2023-05-10T01:07:38;13.80;99.90
25346;DHT22;13300;51.032;3.710;2023-05-10T01:10:05;13.80;99.90
25346;DHT22;13300;51.032;3.710;2023-05-10T01:12:31;13.70;99.90
25346;DHT22;13300;51.032;3.710;2023-05-10T01:14:57;13.60;99.90
25346;DHT22;13300;51.032;3.710;2023-05-10T01:17:23;13.70;99.90
25346;DHT22;13300;51.032;3.710;2023-05-10T01:19:50;13.70;99.90
25346;DHT22;13300;51.032;3.710;2023-05-10T01:25:30;13.80;99.90
25346;DHT22;13300;51.032;3.710;2023-05-10T01:36:32;13.90;99.90
25346;DHT22;13300;51.032;3.710;2023-05-10T01:39:15;13.80;99.90
25346;DHT22;13300;51.032;3.710;2023-05-10T01:42:05;13.80;99.90
25346;DHT22;13300;51.032;3.710;2023-05-10T01:47:25;13.90;99.90
25346;DHT22;13300;51.032;3.710;2023-05-10T01:49:55;13.90;99.90
25346;DHT22;13300;51.032;3.710;2023-05-10T01:52:26;13.90;99.90
25346;DHT22;13300;51.032;3.710;2023-05-10T01:54:59;13.70;99.90
25346;DHT22;13300;51.032;3.710;2023-05-10T01:57:30;13.70;99.90
25346;DHT22;13300;51.032;3.710;2023-05-10T01:59:59;13.70;99.90
25346;DHT22;13300;51.032;3.710;2023-05-10T02:02:31;13.70;99.90
25346;DHT22;13300;51.032;3.710;2023-05-10T02:04:59;13.60;99.90
25346;DHT22;13300;51.032;3.710;2023-05-10T02:07:27;13.50;99.90
25346;DHT22;13300;51.032;3.710;2023-05-10T02:09:54;13.40;99.90
25346;DHT22;13300;51.032;3.710;2023-05-10T02:12:22;13.50;99.90
25346;DHT22;13300;51.032;3.710;2023-05-10T02:14:51;13.50;99.90
25346;DHT22;13300;51.032;3.710;2023-05-10T02:17:18;13.50;99.90
25346;DHT22;13300;51.032;3.710;2023-05-10T02:19:47;13.60;99.90
25346;DHT22;13300;51.032;3.710;2023-05-10T02:22:13;13.60;99.90
25346;DHT22;13300;51.032;3.710;2023-05-10T02:24:41;13.60;99.90
25346;DHT22;13300;51.032;3.710;2023-05-10T02:27:08;13.70;99.90
25346;DHT22;13300;51.032;3.710;2023-05-10T02:29:36;13.70;99.90
25346;DHT22;13300;51.032;3.710;2023-05-10T02:32:02;13.80;99.90
25346;DHT22;13300;51.032;3.710;2023-05-10T02:34:32;13.80;99.90
25346;DHT22;13300;51.032;3.710;2023-05-10T02:36:58;13.70;99.90
25346;DHT22;13300;51.032;3.710;2023-05-10T02:39:29;13.70;99.90
25346;DHT22;13300;51.032;3.710;2023-05-10T02:41:57;13.80;99.90
25346;DHT22;13300;51.032;3.710;2023-05-10T02:44:24;13.80;99.90
25346;DHT22;13300;51.032;3.710;2023-05-10T02:46:52;13.80;99.90
25346;DHT22;13300;51.032;3.710;2023-05-10T02:49:18;13.80;99.90
25346;DHT22;13300;51.032;3.710;2023-05-10T02:51:54;13.80;99.90
25346;DHT22;13300;51.032;3.710;2023-05-10T02:54:29;13.80;99.90
25346;DHT22;13300;51.032;3.710;2023-05-10T02:56:58;13.70;99.90
25346;DHT22;13300;51.032;3.710;2023-05-10T02:59:25;13.70;99.90
25346;DHT22;13300;51.032;3.710;2023-05-10T03:01:51;13.70;99.90
25346;DHT22;13300;51.032;3.710;2023-05-10T03:04:17;13.80;99.90
25346;DHT22;13300;51.032;3.710;2023-05-10T03:06:43;13.70;99.90
25346;DHT22;13300;51.032;3.710;2023-05-10T03:09:09;13.80;99.90
25346;DHT22;13300;51.032;3.710;2023-05-10T03:11:56;13.60;99.90
25346;DHT22;13300;51.032;3.710;2023-05-10T03:14:34;13.50;99.90
25346;DHT22;13300;51.032;3.710;2023-05-10T03:17:11;13.50;99.90
25346;DHT22;13300;51.032;3.710;2023-05-10T03:19:55;13.50;99.90
25346;DHT22;13300;51.032;3.710;2023-05-10T03:22:31;13.40;99.90
25346;DHT22;13300;51.032;3.710;2023-05-10T03:24:58;13.50;99.90
25346;DHT22;13300;51.032;3.710;2023-05-10T03:27:27;13.60;99.90
25346;DHT22;13300;51.032;3.710;2023-05-10T03:29:54;13.80;99.90
25346;DHT22;13300;51.032;3.710;2023-05-10T03:32:20;13.70;99.90
25346;DHT22;13300;51.032;3.710;2023-05-10T03:34:45;13.80;99.90
25346;DHT22;13300;51.032;3.710;2023-05-10T03:37:11;13.80;99.90
25346;DHT22;13300;51.032;3.710;2023-05-10T03:39:37;13.90;99.90
25346;DHT22;13300;51.032;3.710;2023-05-10T03:42:02;13.80;99.90
25346;DHT22;13300;51.032;3.710;2023-05-10T03:44:28;13.80;99.90
25346;DHT22;13300;51.032;3.710;2023-05-10T03:46:54;13.90;99.90
25346;DHT22;13300;51.032;3.710;2023-05-10T03:49:20;13.80;99.90
25346;DHT22;13300;51.032;3.710;2023-05-10T03:51:46;13.80;99.90
25346;DHT22;13300;51.032;3.710;2023-05-10T03:54:11;13.90;99.90
25346;DHT22;13300;51.032;3.710;2023-05-10T03:56:37;14.00;99.90
25346;DHT22;13300;51.032;3.710;2023-05-10T03:59:03;13.90;99.90
25346;DHT22;13300;51.032;3.710;2023-05-10T04:01:35;13.90;99.90
25346;DHT22;13300;51.032;3.710;2023-05-10T04:04:00;13.90;99.90
25346;DHT22;13300;51.032;3.710;2023-05-10T04:06:26;13.90;99.90
25346;DHT22;13300;51.032;3.710;2023-05-10T04:08:52;13.90;99.90
25346;DHT22;13300;51.032;3.710;2023-05-10T04:11:17;13.90;99.90
25346;DHT22;13300;51.032;3.710;2023-05-10T04:13:43;13.90;99.90
25346;DHT22;13300;51.032;3.710;2023-05-10T04:16:09;14.00;99.90
25346;DHT22;13300;51.032;3.710;2023-05-10T04:18:34;14.00;99.90
25346;DHT22;13300;51.032;3.710;2023-05-10T04:21:00;14.00;99.90
25346;DHT22;13300;51.032;3.710;2023-05-10T04:23:29;14.00;99.90
25346;DHT22;13300;51.032;3.710;2023-05-10T04:26:01;14.10;99.90
25346;DHT22;13300;51.032;3.710;2023-05-10T04:28:27;14.10;99.90
25346;DHT22;13300;51.032;3.710;2023-05-10T04:30:53;14.20;99.90
25346;DHT22;13300;51.032;3.710;2023-05-10T04:33:19;14.30;99.90
25346;DHT22;13300;51.032;3.710;2023-05-10T04:35:44;14.30;99.90
25346;DHT22;13300;51.032;3.710;2023-05-10T04:38:10;14.30;99.90
25346;DHT22;13300;51.032;3.710;2023-05-10T04:40:36;14.40;99.90
25346;DHT22;13300;51.032;3.710;2023-05-10T04:43:02;14.40;99.90
25346;DHT22;13300;51.032;3.710;2023-05-10T04:45:27;14.40;99.90
25346;DHT22;13300;51.032;3.710;2023-05-10T04:47:53;14.30;99.90
25346;DHT22;13300;51.032;3.710;2023-05-10T04:50:18;14.30;99.90
25346;DHT22;13300;51.032;3.710;2023-05-10T04:52:44;14.30;99.90
25346;DHT22;13300;51.032;3.710;2023-05-10T04:55:10;14.40;99.90
25346;DHT22;13300;51.032;3.710;2023-05-10T04:57:38;14.40;99.90
25346;DHT22;13300;51.032;3.710;2023-05-10T05:00:04;14.40;99.90
25346;DHT22;13300;51.032;3.710;2023-05-10T05:02:30;14.50;99.90
25346;DHT22;13300;51.032;3.710;2023-05-10T05:04:56;14.50;99.90
25346;DHT22;13300;51.032;3.710;2023-05-10T05:07:23;14.70;99.90
25346;DHT22;13300;51.032;3.710;2023-05-10T05:09:48;14.70;99.90
25346;DHT22;13300;51.032;3.710;2023-05-10T05:12:14;14.70;99.90
25346;DHT22;13300;51.032;3.710;2023-05-10T05:14:40;14.70;99.90
25346;DHT22;13300;51.032;3.710;2023-05-10T05:17:06;14.70;99.90
25346;DHT22;13300;51.032;3.710;2023-05-10T05:19:32;14.70;99.90
25346;DHT22;13300;51.032;3.710;2023-05-10T05:21:58;14.70;99.90
25346;DHT22;13300;51.032;3.710;2023-05-10T05:24:24;14.70;99.90
25346;DHT22;13300;51.032;3.710;2023-05-10T05:26:49;14.70;99.90
25346;DHT22;13300;51.032;3.710;2023-05-10T05:29:15;14.80;99.90
25346;DHT22;13300;51.032;3.710;2023-05-10T05:31:41;14.80;99.90
25346;DHT22;13300;51.032;3.710;2023-05-10T05:34:06;14.80;99.90
25346;DHT22;13300;51.032;3.710;2023-05-10T05:36:32;14.90;99.90
25346;DHT22;13300;51.032;3.710;2023-05-10T05:39:01;15.10;99.90
25346;DHT22;13300;51.032;3.710;2023-05-10T05:41:26;15.10;99.90
25346;DHT22;13300;51.032;3.710;2023-05-10T05:43:52;15.00;99.90
25346;DHT22;13300;51.032;3.710;2023-05-10T05:46:18;15.00;99.90
25346;DHT22;13300;51.032;3.710;2023-05-10T05:48:43;15.00;99.90
25346;DHT22;13300;51.032;3.710;2023-05-10T05:51:09;15.00;99.90
25346;DHT22;13300;51.032;3.710;2023-05-10T05:53:35;15.00;99.90
25346;DHT22;13300;51.032;3.710;2023-05-10T05:56:01;15.10;99.90
25346;DHT22;13300;51.032;3.710;2023-05-10T05:58:27;15.10;99.90
25346;DHT22;13300;51.032;3.710;2023-05-10T06:00:53;15.20;99.90
25346;DHT22;13300;51.032;3.710;2023-05-10T06:03:19;15.30;99.90
25346;DHT22;13300;51.032;3.710;2023-05-10T06:05:45;15.30;99.90
25346;DHT22;13300;51.032;3.710;2023-05-10T06:08:10;15.40;99.90
25346;DHT22;13300;51.032;3.710;2023-05-10T06:10:36;15.30;99.90
25346;DHT22;13300;51.032;3.710;2023-05-10T06:13:02;15.20;99.90
25346;DHT22;13300;51.032;3.710;2023-05-10T06:15:28;15.20;99.90
25346;DHT22;13300;51.032;3.710;2023-05-10T06:17:54;15.30;99.90
25346;DHT22;13300;51.032;3.710;2023-05-10T06:20:20;15.40;99.90
25346;DHT22;13300;51.032;3.710;2023-05-10T06:22:45;15.40;99.90
25346;DHT22;13300;51.032;3.710;2023-05-10T06:25:11;15.30;99.90
25346;DHT22;13300;51.032;3.710;2023-05-10T06:27:37;15.30;99.90
25346;DHT22;13300;51.032;3.710;2023-05-10T06:30:03;15.30;99.90
25346;DHT22;13300;51.032;3.710;2023-05-10T06:32:29;15.40;99.90
25346;DHT22;13300;51.032;3.710;2023-05-10T06:34:55;15.30;99.90
25346;DHT22;13300;51.032;3.710;2023-05-10T06:37:20;15.30;99.90
25346;DHT22;13300;51.032;3.710;2023-05-10T06:39:46;15.40;99.90
25346;DHT22;13300;51.032;3.710;2023-05-10T06:42:11;15.40;99.90
25346;DHT22;13300;51.032;3.710;2023-05-10T06:44:37;15.40;99.90
25346;DHT22;13300;51.032;3.710;2023-05-10T06:47:03;15.40;99.90
25346;DHT22;13300;51.032;3.710;2023-05-10T06:49:29;15.40;99.90
25346;DHT22;13300;51.032;3.710;2023-05-10T06:51:57;15.40;99.90
25346;DHT22;13300;51.032;3.710;2023-05-10T06:54:23;15.40;99.90
25346;DHT22;13300;51.032;3.710;2023-05-10T06:56:49;15.40;99.90
25346;DHT22;13300;51.032;3.710;2023-05-10T06:59:14;15.40;99.90
25346;DHT22;13300;51.032;3.710;2023-05-10T07:01:42;15.50;99.90
25346;DHT22;13300;51.032;3.710;2023-05-10T07:04:08;15.50;99.90
25346;DHT22;13300;51.032;3.710;2023-05-10T07:06:33;15.40;99.90
25346;DHT22;13300;51.032;3.710;2023-05-10T07:09:00;15.50;99.90
25346;DHT22;13300;51.032;3.710;2023-05-10T07:11:25;15.50;99.90
25346;DHT22;13300;51.032;3.710;2023-05-10T07:13:52;15.50;99.90
25346;DHT22;13300;51.032;3.710;2023-05-10T07:16:18;15.50;99.90
25346;DHT22;13300;51.032;3.710;2023-05-10T07:18:43;15.50;99.90
25346;DHT22;13300;51.032;3.710;2023-05-10T07:21:09;15.50;99.90
25346;DHT22;13300;51.032;3.710;2023-05-10T07:23:35;15.40;99.90
25346;DHT22;13300;51.032;3.710;2023-05-10T07:26:00;15.20;99.90
25346;DHT22;13300;51.032;3.710;2023-05-10T07:28:27;15.00;99.90
25346;DHT22;13300;51.032;3.710;2023-05-10T07:30:53;15.00;99.90
25346;DHT22;13300;51.032;3.710;2023-05-10T07:33:19;15.20;99.90
25346;DHT22;13300;51.032;3.710;2023-05-10T07:35:44;15.40;99.90
25346;DHT22;13300;51.032;3.710;2023-05-10T07:38:10;15.70;99.90
25346;DHT22;13300;51.032;3.710;2023-05-10T07:40:36;15.70;99.90
25346;DHT22;13300;51.032;3.710;2023-05-10T07:43:03;15.80;99.90
25346;DHT22;13300;51.032;3.710;2023-05-10T07:45:29;15.80;99.90
25346;DHT22;13300;51.032;3.710;2023-05-10T07:47:54;15.40;99.90
25346;DHT22;13300;51.032;3.710;2023-05-10T07:50:20;15.40;99.90
25346;DHT22;13300;51.032;3.710;2023-05-10T07:52:47;15.40;99.90
25346;DHT22;13300;51.032;3.710;2023-05-10T07:55:13;15.60;99.90
25346;DHT22;13300;51.032;3.710;2023-05-10T07:57:39;15.60;99.90
25346;DHT22;13300;51.032;3.710;2023-05-10T08:00:06;15.60;99.90
25346;DHT22;13300;51.032;3.710;2023-05-10T08:02:34;15.60;99.90
25346;DHT22;13300;51.032;3.710;2023-05-10T08:05:00;15.70;99.90
25346;DHT22;13300;51.032;3.710;2023-05-10T08:07:26;15.70;99.90
25346;DHT22;13300;51.032;3.710;2023-05-10T08:09:51;15.70;99.90
25346;DHT22;13300;51.032;3.710;2023-05-10T08:12:17;15.70;99.90
25346;DHT22;13300;51.032;3.710;2023-05-10T08:14:43;15.40;99.90
25346;DHT22;13300;51.032;3.710;2023-05-10T08:17:09;15.50;99.90
25346;DHT22;13300;51.032;3.710;2023-05-10T08:19:34;15.60;99.90
25346;DHT22;13300;51.032;3.710;2023-05-10T08:22:00;15.40;99.90
25346;DHT22;13300;51.032;3.710;2023-05-10T08:24:26;15.50;99.90
25346;DHT22;13300;51.032;3.710;2023-05-10T08:26:52;15.30;99.90
25346;DHT22;13300;51.032;3.710;2023-05-10T08:29:17;15.40;99.90
25346;DHT22;13300;51.032;3.710;2023-05-10T08:31:43;15.20;99.90
25346;DHT22;13300;51.032;3.710;2023-05-10T08:34:09;15.40;99.90
25346;DHT22;13300;51.032;3.710;2023-05-10T08:36:35;15.60;99.90
25346;DHT22;13300;51.032;3.710;2023-05-10T08:39:01;15.50;99.90
25346;DHT22;13300;51.032;3.710;2023-05-10T08:41:27;15.30;99.90
25346;DHT22;13300;51.032;3.710;2023-05-10T08:43:54;15.20;99.90
25346;DHT22;13300;51.032;3.710;2023-05-10T08:46:21;14.90;99.90
25346;DHT22;13300;51.032;3.710;2023-05-10T08:48:50;14.90;99.90
25346;DHT22;13300;51.032;3.710;2023-05-10T08:51:22;15.00;99.90
25346;DHT22;13300;51.032;3.710;2023-05-10T08:53:50;14.80;99.90
25346;DHT22;13300;51.032;3.710;2023-05-10T08:56:16;14.80;99.90
25346;DHT22;13300;51.032;3.710;2023-05-10T08:58:43;14.70;99.90
25346;DHT22;13300;51.032;3.710;2023-05-10T09:01:09;14.70;99.90
25346;DHT22;13300;51.032;3.710;2023-05-10T09:03:38;14.60;99.90
25346;DHT22;13300;51.032;3.710;2023-05-10T09:06:04;14.40;99.90
25346;DHT22;13300;51.032;3.710;2023-05-10T09:08:30;14.50;99.90
25346;DHT22;13300;51.032;3.710;2023-05-10T09:10:57;14.50;99.90
25346;DHT22;13300;51.032;3.710;2023-05-10T09:13:24;14.70;99.90
25346;DHT22;13300;51.032;3.710;2023-05-10T09:15:51;15.10;99.90
25346;DHT22;13300;51.032;3.710;2023-05-10T09:18:18;15.40;99.90
25346;DHT22;13300;51.032;3.710;2023-05-10T09:20:43;15.60;99.90
25346;DHT22;13300;51.032;3.710;2023-05-10T09:23:10;15.70;99.90
25346;DHT22;13300;51.032;3.710;2023-05-10T09:25:36;16.10;99.90
25346;DHT22;13300;51.032;3.710;2023-05-10T09:28:06;16.10;99.90
25346;DHT22;13300;51.032;3.710;2023-05-10T09:30:36;15.90;99.90
25346;DHT22;13300;51.032;3.710;2023-05-10T09:33:02;16.00;99.90
25346;DHT22;13300;51.032;3.710;2023-05-10T09:35:30;16.10;99.90
25346;DHT22;13300;51.032;3.710;2023-05-10T09:37:58;16.40;99.90
25346;DHT22;13300;51.032;3.710;2023-05-10T09:40:26;16.60;99.90
25346;DHT22;13300;51.032;3.710;2023-05-10T09:43:00;17.00;99.90
25346;DHT22;13300;51.032;3.710;2023-05-10T09:45:28;17.00;99.90
25346;DHT22;13300;51.032;3.710;2023-05-10T09:48:01;17.60;99.90
25346;DHT22;13300;51.032;3.710;2023-05-10T09:50:31;18.10;99.90
25346;DHT22;13300;51.032;3.710;2023-05-10T09:53:01;18.10;99.90
25346;DHT22;13300;51.032;3.710;2023-05-10T09:55:41;18.20;99.90
25346;DHT22;13300;51.032;3.710;2023-05-10T09:58:09;18.20;99.90
25346;DHT22;13300;51.032;3.710;2023-05-10T10:00:40;18.30;99.90
25346;DHT22;13300;51.032;3.710;2023-05-10T10:03:19;18.30;99.90
25346;DHT22;13300;51.032;3.710;2023-05-10T10:05:46;18.40;99.90
25346;DHT22;13300;51.032;3.710;2023-05-10T10:08:13;18.40;99.90
25346;DHT22;13300;51.032;3.710;2023-05-10T10:10:39;18.90;99.90
25346;DHT22;13300;51.032;3.710;2023-05-10T10:13:10;19.50;99.90
25346;DHT22;13300;51.032;3.710;2023-05-10T10:15:36;19.70;99.90
25346;DHT22;13300;51.032;3.710;2023-05-10T10:18:02;19.80;99.90
25346;DHT22;13300;51.032;3.710;2023-05-10T10:20:29;19.70;99.90
25346;DHT22;13300;51.032;3.710;2023-05-10T10:22:55;19.70;99.90
25346;DHT22;13300;51.032;3.710;2023-05-10T10:25:21;19.90;99.90
25346;DHT22;13300;51.032;3.710;2023-05-10T10:27:59;20.00;99.90
25346;DHT22;13300;51.032;3.710;2023-05-10T10:30:42;19.60;99.90
25346;DHT22;13300;51.032;3.710;2023-05-10T10:35:35;20.00;99.90
25346;DHT22;13300;51.032;3.710;2023-05-10T10:38:01;20.10;99.90
25346;DHT22;13300;51.032;3.710;2023-05-10T10:40:29;19.60;99.90
25346;DHT22;13300;51.032;3.710;2023-05-10T10:42:55;19.50;99.90
25346;DHT22;13300;51.032;3.710;2023-05-10T10:45:22;19.40;99.90
25346;DHT22;13300;51.032;3.710;2023-05-10T10:47:48;19.30;99.90
25346;DHT22;13300;51.032;3.710;2023-05-10T10:50:15;19.20;99.90
25346;DHT22;13300;51.032;3.710;2023-05-10T10:52:44;18.80;99.90
25346;DHT22;13300;51.032;3.710;2023-05-10T10:55:18;18.40;99.90
25346;DHT22;13300;51.032;3.710;2023-05-10T11:00:28;17.40;99.90
25346;DHT22;13300;51.032;3.710;2023-05-10T11:02:59;17.20;99.90
25346;DHT22;13300;51.032;3.710;2023-05-10T11:08:19;17.60;99.90
25346;DHT22;13300;51.032;3.710;2023-05-10T11:10:53;17.80;99.90
25346;DHT22;13300;51.032;3.710;2023-05-10T11:13:28;17.80;99.90
25346;DHT22;13300;51.032;3.710;2023-05-10T11:15:55;17.30;99.90
25346;DHT22;13300;51.032;3.710;2023-05-10T11:18:26;17.00;99.90
25346;DHT22;13300;51.032;3.710;2023-05-10T11:21:00;16.70;99.90
25346;DHT22;13300;51.032;3.710;2023-05-10T11:23:32;16.70;99.90
25346;DHT22;13300;51.032;3.710;2023-05-10T11:25:59;16.70;99.90
25346;DHT22;13300;51.032;3.710;2023-05-10T11:28:26;16.80;99.90
25346;DHT22;13300;51.032;3.710;2023-05-10T11:30:52;16.70;99.90
25346;DHT22;13300;51.032;3.710;2023-05-10T11:33:19;16.50;99.90
25346;DHT22;13300;51.032;3.710;2023-05-10T11:35:45;16.30;99.90
25346;DHT22;13300;51.032;3.710;2023-05-10T11:38:14;16.10;99.90
25346;DHT22;13300;51.032;3.710;2023-05-10T11:40:40;16.10;99.90
25346;DHT22;13300;51.032;3.710;2023-05-10T11:43:09;16.00;99.90
25346;DHT22;13300;51.032;3.710;2023-05-10T11:45:35;16.10;99.90
25346;DHT22;13300;51.032;3.710;2023-05-10T11:48:03;16.20;99.90
25346;DHT22;13300;51.032;3.710;2023-05-10T11:50:29;16.30;99.90
25346;DHT22;13300;51.032;3.710;2023-05-10T11:52:56;16.40;99.90
25346;DHT22;13300;51.032;3.710;2023-05-10T11:55:22;16.40;99.90
25346;DHT22;13300;51.032;3.710;2023-05-10T11:57:54;16.40;99.90
25346;DHT22;13300;51.032;3.710;2023-05-10T12:00:23;16.80;99.90
25346;DHT22;13300;51.032;3.710;2023-05-10T12:02:51;16.70;99.90
25346;DHT22;13300;51.032;3.710;2023-05-10T12:05:21;16.90;99.90
25346;DHT22;13300;51.032;3.710;2023-05-10T12:07:47;17.20;99.90
25346;DHT22;13300;51.032;3.710;2023-05-10T12:10:13;17.30;99.90
25346;DHT22;13300;51.032;3.710;2023-05-10T12:12:44;17.10;99.90
25346;DHT22;13300;51.032;3.710;2023-05-10T12:15:19;17.40;99.90
25346;DHT22;13300;51.032;3.710;2023-05-10T12:17:45;17.80;99.90
25346;DHT22;13300;51.032;3.710;2023-05-10T12:20:22;17.90;99.90
25346;DHT22;13300;51.032;3.710;2023-05-10T12:22:53;17.90;99.90
25346;DHT22;13300;51.032;3.710;2023-05-10T12:25:20;18.10;99.90
25346;DHT22;13300;51.032;3.710;2023-05-10T12:27:54;18.20;99.90
25346;DHT22;13300;51.032;3.710;2023-05-10T12:30:31;17.70;99.90
25346;DHT22;13300;51.032;3.710;2023-05-10T12:33:12;17.50;99.90
25346;DHT22;13300;51.032;3.710;2023-05-10T12:35:50;17.50;99.90
25346;DHT22;13300;51.032;3.710;2023-05-10T12:38:31;17.10;99.90
25346;DHT22;13300;51.032;3.710;2023-05-10T12:41:02;17.10;99.90
25346;DHT22;13300;51.032;3.710;2023-05-10T12:43:29;17.20;99.90
25346;DHT22;13300;51.032;3.710;2023-05-10T12:45:55;17.20;99.90
25346;DHT22;13300;51.032;3.710;2023-05-10T12:48:22;17.20;99.90
25346;DHT22;13300;51.032;3.710;2023-05-10T12:50:48;17.30;99.90
25346;DHT22;13300;51.032;3.710;2023-05-10T12:53:16;17.20;99.90
25346;DHT22;13300;51.032;3.710;2023-05-10T12:55:44;17.30;99.90
25346;DHT22;13300;51.032;3.710;2023-05-10T12:58:09;17.30;99.90
25346;DHT22;13300;51.032;3.710;2023-05-10T13:00:35;17.00;99.90
25346;DHT22;13300;51.032;3.710;2023-05-10T13:03:04;16.80;99.90
25346;DHT22;13300;51.032;3.710;2023-05-10T13:05:32;16.60;99.90
25346;DHT22;13300;51.032;3.710;2023-05-10T13:07:58;16.40;99.90
25346;DHT22;13300;51.032;3.710;2023-05-10T13:10:24;16.20;99.90
25346;DHT22;13300;51.032;3.710;2023-05-10T13:12:50;16.20;99.90
25346;DHT22;13300;51.032;3.710;2023-05-10T13:15:18;15.50;99.90
25346;DHT22;13300;51.032;3.710;2023-05-10T13:17:44;15.20;99.90
25346;DHT22;13300;51.032;3.710;2023-05-10T13:20:10;15.00;99.90
25346;DHT22;13300;51.032;3.710;2023-05-10T13:22:36;14.90;99.90
25346;DHT22;13300;51.032;3.710;2023-05-10T13:25:02;14.80;99.90
25346;DHT22;13300;51.032;3.710;2023-05-10T13:27:30;14.80;99.90
25346;DHT22;13300;51.032;3.710;2023-05-10T13:29:56;14.80;99.90
25346;DHT22;13300;51.032;3.710;2023-05-10T13:32:22;14.70;99.90
25346;DHT22;13300;51.032;3.710;2023-05-10T13:34:48;14.60;99.90
25346;DHT22;13300;51.032;3.710;2023-05-10T13:37:18;14.50;99.90
25346;DHT22;13300;51.032;3.710;2023-05-10T13:39:44;14.60;99.90
25346;DHT22;13300;51.032;3.710;2023-05-10T13:42:10;14.70;99.90
25346;DHT22;13300;51.032;3.710;2023-05-10T13:44:39;14.80;99.90
25346;DHT22;13300;51.032;3.710;2023-05-10T13:47:08;15.10;99.90
25346;DHT22;13300;51.032;3.710;2023-05-10T13:49:34;15.50;99.90
25346;DHT22;13300;51.032;3.710;2023-05-10T13:52:03;15.50;99.90
25346;DHT22;13300;51.032;3.710;2023-05-10T13:54:35;15.60;99.90
25346;DHT22;13300;51.032;3.710;2023-05-10T13:57:04;15.80;99.90
25346;DHT22;13300;51.032;3.710;2023-05-10T13:59:31;15.70;99.90
25346;DHT22;13300;51.032;3.710;2023-05-10T14:02:00;15.90;99.90
25346;DHT22;13300;51.032;3.710;2023-05-10T14:04:28;16.00;99.90
25346;DHT22;13300;51.032;3.710;2023-05-10T14:06:54;16.10;99.90
25346;DHT22;13300;51.032;3.710;2023-05-10T14:09:20;16.10;99.90
25346;DHT22;13300;51.032;3.710;2023-05-10T14:11:50;15.90;99.90
25346;DHT22;13300;51.032;3.710;2023-05-10T14:14:16;15.90;99.90
25346;DHT22;13300;51.032;3.710;2023-05-10T14:16:45;16.10;99.90
25346;DHT22;13300;51.032;3.710;2023-05-10T14:19:10;16.20;99.90
25346;DHT22;13300;51.032;3.710;2023-05-10T14:21:45;16.40;99.90
25346;DHT22;13300;51.032;3.710;2023-05-10T14:24:11;16.60;99.90
25346;DHT22;13300;51.032;3.710;2023-05-10T14:26:37;16.60;99.90
25346;DHT22;13300;51.032;3.710;2023-05-10T14:29:03;16.70;99.90
25346;DHT22;13300;51.032;3.710;2023-05-10T14:31:28;16.90;99.90
25346;DHT22;13300;51.032;3.710;2023-05-10T14:33:55;17.00;99.90
25346;DHT22;13300;51.032;3.710;2023-05-10T14:36:22;17.00;99.90
25346;DHT22;13300;51.032;3.710;2023-05-10T14:38:48;17.10;99.90
25346;DHT22;13300;51.032;3.710;2023-05-10T14:41:14;17.20;99.90
25346;DHT22;13300;51.032;3.710;2023-05-10T14:43:41;17.40;99.90
25346;DHT22;13300;51.032;3.710;2023-05-10T14:46:07;17.30;99.90
25346;DHT22;13300;51.032;3.710;2023-05-10T14:48:33;17.40;99.90
25346;DHT22;13300;51.032;3.710;2023-05-10T14:50:58;17.40;99.90
25346;DHT22;13300;51.032;3.710;2023-05-10T14:53:24;17.40;99.90
25346;DHT22;13300;51.032;3.710;2023-05-10T14:55:50;17.50;99.90
25346;DHT22;13300;51.032;3.710;2023-05-10T14:58:15;17.60;99.90
25346;DHT22;13300;51.032;3.710;2023-05-10T15:00:42;17.70;99.90
25346;DHT22;13300;51.032;3.710;2023-05-10T15:03:08;17.80;99.90
25346;DHT22;13300;51.032;3.710;2023-05-10T15:05:34;17.90;99.90
25346;DHT22;13300;51.032;3.710;2023-05-10T15:08:02;18.00;99.90
25346;DHT22;13300;51.032;3.710;2023-05-10T15:10:28;18.10;99.90
25346;DHT22;13300;51.032;3.710;2023-05-10T15:12:54;18.20;99.90
25346;DHT22;13300;51.032;3.710;2023-05-10T15:15:20;18.30;99.90
25346;DHT22;13300;51.032;3.710;2023-05-10T15:17:45;18.40;99.90
25346;DHT22;13300;51.032;3.710;2023-05-10T15:20:11;18.40;99.90
25346;DHT22;13300;51.032;3.710;2023-05-10T15:22:37;18.50;99.90
25346;DHT22;13300;51.032;3.710;2023-05-10T15:25:03;18.50;99.90
25346;DHT22;13300;51.032;3.710;2023-05-10T15:27:29;18.40;99.90
25346;DHT22;13300;51.032;3.710;2023-05-10T15:29:55;18.30;99.90
25346;DHT22;13300;51.032;3.710;2023-05-10T15:32:21;18.20;99.90
25346;DHT22;13300;51.032;3.710;2023-05-10T15:34:49;18.20;99.90
25346;DHT22;13300;51.032;3.710;2023-05-10T15:37:15;18.20;99.90
25346;DHT22;13300;51.032;3.710;2023-05-10T15:39:41;18.30;99.90
25346;DHT22;13300;51.032;3.710;2023-05-10T15:42:06;18.20;99.90
25346;DHT22;13300;51.032;3.710;2023-05-10T15:44:32;18.20;99.90
25346;DHT22;13300;51.032;3.710;2023-05-10T15:47:01;18.20;99.90
25346;DHT22;13300;51.032;3.710;2023-05-10T15:49:28;18.20;99.90
25346;DHT22;13300;51.032;3.710;2023-05-10T15:51:53;18.30;99.90
25346;DHT22;13300;51.032;3.710;2023-05-10T15:54:19;18.30;99.90